sensor_id;sensor_type;location;lat;lon;timestamp;pressure;altitude;pressure_sealevel;temperature;humidity
53041;BME280;39326;42.650;23.248;2023-05-25T00:01:04;92559.59;;;13.67;74.39
53041;BME280;39326;42.650;23.248;2023-05-25T00:03:30;92564.63;;;13.61;74.26
53041;BME280;39326;42.650;23.248;2023-05-25T00:05:55;92559.31;;;13.57;74.61
53041;BME280;39326;42.650;23.248;2023-05-25T00:08:22;92567.31;;;13.61;74.23
53041;BME280;39326;42.650;23.248;2023-05-25T00:10:48;92563.88;;;13.61;74.34
53041;BME280;39326;42.650;23.248;2023-05-25T00:13:13;92557.03;;;13.56;74.36
53041;BME280;39326;42.650;23.248;2023-05-25T00:15:38;92552.47;;;13.53;74.50
53041;BME280;39326;42.650;23.248;2023-05-25T00:18:04;92552.06;;;13.54;74.32
53041;BME280;39326;42.650;23.248;2023-05-25T00:20:30;92555.53;;;13.51;74.70
53041;BME280;39326;42.650;23.248;2023-05-25T00:22:57;92564.78;;;13.47;74.74
53041;BME280;39326;42.650;23.248;2023-05-25T00:25:23;92561.00;;;13.44;74.52
53041;BME280;39326;42.650;23.248;2023-05-25T00:27:48;92558.34;;;13.41;74.77
53041;BME280;39326;42.650;23.248;2023-05-25T00:30:13;92562.22;;;13.36;74.92
53041;BME280;39326;42.650;23.248;2023-05-25T00:32:39;92558.41;;;13.34;75.07
53041;BME280;39326;42.650;23.248;2023-05-25T00:35:05;92559.19;;;13.34;74.94
53041;BME280;39326;42.650;23.248;2023-05-25T00:37:31;92565.66;;;13.37;75.11
53041;BME280;39326;42.650;23.248;2023-05-25T00:39:56;92573.31;;;13.38;74.88
53041;BME280;39326;42.650;23.248;2023-05-25T00:42:22;92570.22;;;13.40;74.91
53041;BME280;39326;42.650;23.248;2023-05-25T00:44:48;92570.28;;;13.36;75.36
53041;BME280;39326;42.650;23.248;2023-05-25T00:47:14;92567.59;;;13.36;75.51
53041;BME280;39326;42.650;23.248;2023-05-25T00:49:40;92573.69;;;13.37;75.49
53041;BME280;39326;42.650;23.248;2023-05-25T00:52:06;92553.56;;;13.21;75.66
53041;BME280;39326;42.650;23.248;2023-05-25T00:54:32;92572.97;;;13.32;75.53
53041;BME280;39326;42.650;23.248;2023-05-25T00:57:00;92573.72;;;13.33;75.61
53041;BME280;39326;42.650;23.248;2023-05-25T00:59:38;92568.81;;;13.28;75.99
53041;BME280;39326;42.650;23.248;2023-05-25T01:02:08;92572.66;;;13.27;75.87
53041;BME280;39326;42.650;23.248;2023-05-25T01:04:39;92568.88;;;13.21;76.00
53041;BME280;39326;42.650;23.248;2023-05-25T01:07:07;92571.22;;;13.15;76.13
53041;BME280;39326;42.650;23.248;2023-05-25T01:09:34;92580.84;;;13.09;76.21
53041;BME280;39326;42.650;23.248;2023-05-25T01:12:02;92585.06;;;13.10;76.45
53041;BME280;39326;42.650;23.248;2023-05-25T01:14:28;92578.97;;;13.10;76.97
53041;BME280;39326;42.650;23.248;2023-05-25T01:16:56;92577.16;;;12.96;76.89
53041;BME280;39326;42.650;23.248;2023-05-25T01:19:23;92582.56;;;12.92;77.08
53041;BME280;39326;42.650;23.248;2023-05-25T01:21:57;92586.75;;;12.90;77.68
53041;BME280;39326;42.650;23.248;2023-05-25T01:24:43;92584.84;;;12.90;77.84
53041;BME280;39326;42.650;23.248;2023-05-25T01:27:15;92573.38;;;12.90;77.80
53041;BME280;39326;42.650;23.248;2023-05-25T01:29:44;92568.84;;;12.83;78.02
53041;BME280;39326;42.650;23.248;2023-05-25T01:32:12;92570.06;;;12.75;78.27
53041;BME280;39326;42.650;23.248;2023-05-25T01:34:40;92572.41;;;12.73;78.51
53041;BME280;39326;42.650;23.248;2023-05-25T01:37:07;92561.28;;;12.74;77.98
53041;BME280;39326;42.650;23.248;2023-05-25T01:39:32;92563.22;;;12.74;78.23
53041;BME280;39326;42.650;23.248;2023-05-25T01:41:58;92558.22;;;12.76;78.03
53041;BME280;39326;42.650;23.248;2023-05-25T01:44:24;92554.34;;;12.81;78.22
53041;BME280;39326;42.650;23.248;2023-05-25T01:46:57;92549.06;;;12.73;78.56
53041;BME280;39326;42.650;23.248;2023-05-25T01:49:31;92553.69;;;12.69;78.63
53041;BME280;39326;42.650;23.248;2023-05-25T01:52:21;92545.66;;;12.69;78.63
53041;BME280;39326;42.650;23.248;2023-05-25T01:54:52;92549.09;;;12.70;78.19
53041;BME280;39326;42.650;23.248;2023-05-25T01:57:19;92547.56;;;12.69;78.49
53041;BME280;39326;42.650;23.248;2023-05-25T01:59:46;92544.13;;;12.68;78.59
53041;BME280;39326;42.650;23.248;2023-05-25T02:02:14;92546.44;;;12.63;78.76
53041;BME280;39326;42.650;23.248;2023-05-25T02:04:41;92543.78;;;12.59;78.72
53041;BME280;39326;42.650;23.248;2023-05-25T02:07:07;92545.72;;;12.59;78.59
53041;BME280;39326;42.650;23.248;2023-05-25T02:09:33;92548.00;;;12.60;78.57
53041;BME280;39326;42.650;23.248;2023-05-25T02:11:58;92551.06;;;12.59;78.73
53041;BME280;39326;42.650;23.248;2023-05-25T02:14:23;92560.28;;;12.54;78.69
53041;BME280;39326;42.650;23.248;2023-05-25T02:16:49;92558.72;;;12.57;78.64
53041;BME280;39326;42.650;23.248;2023-05-25T02:19:15;92563.31;;;12.56;78.89
53041;BME280;39326;42.650;23.248;2023-05-25T02:21:41;92566.00;;;12.56;78.87
53041;BME280;39326;42.650;23.248;2023-05-25T02:24:06;92582.41;;;12.58;78.94
53041;BME280;39326;42.650;23.248;2023-05-25T02:26:34;92579.31;;;12.63;78.98
53041;BME280;39326;42.650;23.248;2023-05-25T02:29:01;92583.91;;;12.63;79.28
53041;BME280;39326;42.650;23.248;2023-05-25T02:31:26;92580.13;;;12.57;79.51
53041;BME280;39326;42.650;23.248;2023-05-25T02:33:52;92585.03;;;12.65;79.07
53041;BME280;39326;42.650;23.248;2023-05-25T02:36:17;92585.41;;;12.64;79.35
53041;BME280;39326;42.650;23.248;2023-05-25T02:38:43;92588.13;;;12.60;79.39
53041;BME280;39326;42.650;23.248;2023-05-25T02:41:08;92583.91;;;12.59;79.53
53041;BME280;39326;42.650;23.248;2023-05-25T02:43:34;92591.19;;;12.59;79.57
53041;BME280;39326;42.650;23.248;2023-05-25T02:46:00;92596.16;;;12.60;79.43
53041;BME280;39326;42.650;23.248;2023-05-25T02:48:26;92596.22;;;12.53;79.83
53041;BME280;39326;42.650;23.248;2023-05-25T02:50:51;92596.97;;;12.54;79.89
53041;BME280;39326;42.650;23.248;2023-05-25T02:53:17;92599.66;;;12.54;79.77
53041;BME280;39326;42.650;23.248;2023-05-25T02:55:42;92599.25;;;12.55;79.80
53041;BME280;39326;42.650;23.248;2023-05-25T02:58:08;92589.72;;;12.54;79.75
53041;BME280;39326;42.650;23.248;2023-05-25T03:00:33;92601.94;;;12.55;80.04
53041;BME280;39326;42.650;23.248;2023-05-25T03:02:58;92609.97;;;12.55;79.78
53041;BME280;39326;42.650;23.248;2023-05-25T03:05:24;92608.44;;;12.50;80.15
53041;BME280;39326;42.650;23.248;2023-05-25T03:07:50;92611.88;;;12.51;80.02
53041;BME280;39326;42.650;23.248;2023-05-25T03:10:15;92604.66;;;12.44;80.02
53041;BME280;39326;42.650;23.248;2023-05-25T03:12:41;92598.91;;;12.46;80.24
53041;BME280;39326;42.650;23.248;2023-05-25T03:15:07;92606.59;;;12.44;80.41
53041;BME280;39326;42.650;23.248;2023-05-25T03:17:33;92600.88;;;12.38;80.57
53041;BME280;39326;42.650;23.248;2023-05-25T03:19:58;92608.19;;;12.34;80.83
53041;BME280;39326;42.650;23.248;2023-05-25T03:22:24;92607.03;;;12.32;80.96
53041;BME280;39326;42.650;23.248;2023-05-25T03:24:49;92613.56;;;12.31;81.11
53041;BME280;39326;42.650;23.248;2023-05-25T03:27:15;92613.16;;;12.32;80.96
53041;BME280;39326;42.650;23.248;2023-05-25T03:29:40;92607.03;;;12.35;81.01
53041;BME280;39326;42.650;23.248;2023-05-25T03:32:06;92610.06;;;12.41;80.76
53041;BME280;39326;42.650;23.248;2023-05-25T03:34:31;92613.47;;;12.45;80.97
53041;BME280;39326;42.650;23.248;2023-05-25T03:36:59;92621.88;;;12.47;80.91
53041;BME280;39326;42.650;23.248;2023-05-25T03:39:24;92609.25;;;12.47;81.08
53041;BME280;39326;42.650;23.248;2023-05-25T03:41:50;92622.56;;;12.55;81.02
53041;BME280;39326;42.650;23.248;2023-05-25T03:44:15;92610.72;;;12.56;80.93
53041;BME280;39326;42.650;23.248;2023-05-25T03:46:41;92616.00;;;12.63;80.72
53041;BME280;39326;42.650;23.248;2023-05-25T03:49:06;92618.31;;;12.68;81.14
53041;BME280;39326;42.650;23.248;2023-05-25T03:51:33;92606.44;;;12.72;81.16
53041;BME280;39326;42.650;23.248;2023-05-25T03:53:58;92623.59;;;12.79;81.18
53041;BME280;39326;42.650;23.248;2023-05-25T03:56:23;92623.13;;;12.87;81.19
53041;BME280;39326;42.650;23.248;2023-05-25T03:58:50;92625.75;;;12.94;81.27
53041;BME280;39326;42.650;23.248;2023-05-25T04:01:16;92629.50;;;13.00;81.26
53041;BME280;39326;42.650;23.248;2023-05-25T04:03:42;92629.78;;;13.13;81.10
53041;BME280;39326;42.650;23.248;2023-05-25T04:06:07;92634.31;;;13.20;80.90
53041;BME280;39326;42.650;23.248;2023-05-25T04:08:33;92627.03;;;13.24;81.20
53041;BME280;39326;42.650;23.248;2023-05-25T04:10:58;92629.97;;;13.33;81.17
53041;BME280;39326;42.650;23.248;2023-05-25T04:13:24;92633.72;;;13.43;81.41
53041;BME280;39326;42.650;23.248;2023-05-25T04:15:49;92642.84;;;13.49;81.57
53041;BME280;39326;42.650;23.248;2023-05-25T04:18:15;92636.75;;;13.48;82.03
53041;BME280;39326;42.650;23.248;2023-05-25T04:20:40;92644.63;;;13.63;81.48
53041;BME280;39326;42.650;23.248;2023-05-25T04:23:06;92643.38;;;13.71;81.67
53041;BME280;39326;42.650;23.248;2023-05-25T04:25:31;92636.38;;;13.80;81.76
53041;BME280;39326;42.650;23.248;2023-05-25T04:27:57;92646.25;;;13.91;81.87
53041;BME280;39326;42.650;23.248;2023-05-25T04:30:22;92649.56;;;14.02;81.31
53041;BME280;39326;42.650;23.248;2023-05-25T04:32:48;92649.44;;;14.13;81.25
53041;BME280;39326;42.650;23.248;2023-05-25T04:35:14;92651.19;;;14.26;81.29
53041;BME280;39326;42.650;23.248;2023-05-25T04:37:40;92654.50;;;14.37;81.48
53041;BME280;39326;42.650;23.248;2023-05-25T04:40:06;92654.38;;;14.48;81.19
53041;BME280;39326;42.650;23.248;2023-05-25T04:42:35;92666.41;;;14.63;81.36
53041;BME280;39326;42.650;23.248;2023-05-25T04:45:02;92662.81;;;14.74;80.92
53041;BME280;39326;42.650;23.248;2023-05-25T04:47:27;92666.50;;;14.83;80.29
53041;BME280;39326;42.650;23.248;2023-05-25T04:49:53;92669.47;;;14.93;79.61
53041;BME280;39326;42.650;23.248;2023-05-25T04:52:18;92673.69;;;14.94;79.16
53041;BME280;39326;42.650;23.248;2023-05-25T04:54:44;92675.13;;;14.98;78.54
53041;BME280;39326;42.650;23.248;2023-05-25T04:57:10;92666.78;;;14.93;79.23
53041;BME280;39326;42.650;23.248;2023-05-25T04:59:36;92658.63;;;15.00;78.83
53041;BME280;39326;42.650;23.248;2023-05-25T05:02:01;92653.25;;;15.00;78.56
53041;BME280;39326;42.650;23.248;2023-05-25T05:04:27;92646.81;;;15.17;77.37
53041;BME280;39326;42.650;23.248;2023-05-25T05:06:52;92660.81;;;15.32;76.99
53041;BME280;39326;42.650;23.248;2023-05-25T05:09:19;92659.47;;;15.43;77.12
53041;BME280;39326;42.650;23.248;2023-05-25T05:11:44;92656.09;;;15.59;76.36
53041;BME280;39326;42.650;23.248;2023-05-25T05:14:10;92653.56;;;15.72;75.85
53041;BME280;39326;42.650;23.248;2023-05-25T05:16:35;92646.41;;;15.85;75.65
53041;BME280;39326;42.650;23.248;2023-05-25T05:19:01;92650.78;;;15.99;75.13
53041;BME280;39326;42.650;23.248;2023-05-25T05:21:27;92653.97;;;16.14;74.80
53041;BME280;39326;42.650;23.248;2023-05-25T05:23:52;92652.09;;;16.31;74.19
53041;BME280;39326;42.650;23.248;2023-05-25T05:26:18;92654.16;;;16.43;73.73
53041;BME280;39326;42.650;23.248;2023-05-25T05:28:43;92661.50;;;16.59;73.20
53041;BME280;39326;42.650;23.248;2023-05-25T05:31:09;92657.81;;;16.69;72.13
53041;BME280;39326;42.650;23.248;2023-05-25T05:33:36;92662.88;;;16.83;71.64
53041;BME280;39326;42.650;23.248;2023-05-25T05:36:01;92660.31;;;16.96;70.74
53041;BME280;39326;42.650;23.248;2023-05-25T05:38:27;92664.03;;;17.02;69.29
53041;BME280;39326;42.650;23.248;2023-05-25T05:40:53;92669.19;;;17.13;67.86
53041;BME280;39326;42.650;23.248;2023-05-25T05:43:18;92674.72;;;17.22;67.96
53041;BME280;39326;42.650;23.248;2023-05-25T05:45:44;92669.66;;;17.40;68.06
53041;BME280;39326;42.650;23.248;2023-05-25T05:48:09;92675.19;;;17.49;67.92
53041;BME280;39326;42.650;23.248;2023-05-25T05:50:38;92658.34;;;17.61;67.23
53041;BME280;39326;42.650;23.248;2023-05-25T05:53:04;92628.22;;;17.34;68.54
53041;BME280;39326;42.650;23.248;2023-05-25T05:55:31;92679.22;;;17.74;68.81
53041;BME280;39326;42.650;23.248;2023-05-25T05:57:56;92678.31;;;17.64;68.33
53041;BME280;39326;42.650;23.248;2023-05-25T06:00:22;92682.19;;;17.79;68.66
53041;BME280;39326;42.650;23.248;2023-05-25T06:02:47;92688.75;;;17.62;69.93
53041;BME280;39326;42.650;23.248;2023-05-25T06:05:13;92682.59;;;17.61;70.03
53041;BME280;39326;42.650;23.248;2023-05-25T06:07:38;92684.28;;;17.72;70.50
53041;BME280;39326;42.650;23.248;2023-05-25T06:10:04;92690.63;;;17.81;69.59
53041;BME280;39326;42.650;23.248;2023-05-25T06:12:30;92684.88;;;17.96;69.82
53041;BME280;39326;42.650;23.248;2023-05-25T06:14:55;92681.06;;;18.22;68.19
53041;BME280;39326;42.650;23.248;2023-05-25T06:17:22;92690.78;;;18.20;68.07
53041;BME280;39326;42.650;23.248;2023-05-25T06:19:48;92680.66;;;18.36;67.39
53041;BME280;39326;42.650;23.248;2023-05-25T06:22:14;92680.16;;;18.41;67.76
53041;BME280;39326;42.650;23.248;2023-05-25T06:24:40;92688.84;;;18.20;67.14
53041;BME280;39326;42.650;23.248;2023-05-25T06:27:05;92691.88;;;18.22;68.09
53041;BME280;39326;42.650;23.248;2023-05-25T06:29:31;92686.28;;;18.29;68.20
53041;BME280;39326;42.650;23.248;2023-05-25T06:31:56;92688.50;;;18.60;68.04
53041;BME280;39326;42.650;23.248;2023-05-25T06:34:22;92692.00;;;18.73;66.44
53041;BME280;39326;42.650;23.248;2023-05-25T06:36:48;92691.56;;;18.87;65.92
53041;BME280;39326;42.650;23.248;2023-05-25T06:39:13;92688.78;;;18.91;65.62
53041;BME280;39326;42.650;23.248;2023-05-25T06:41:39;92687.72;;;19.01;66.26
53041;BME280;39326;42.650;23.248;2023-05-25T06:44:08;92699.59;;;18.91;65.43
53041;BME280;39326;42.650;23.248;2023-05-25T06:46:33;92696.03;;;19.07;65.35
53041;BME280;39326;42.650;23.248;2023-05-25T06:48:59;92697.00;;;19.38;66.00
53041;BME280;39326;42.650;23.248;2023-05-25T06:51:25;92690.88;;;19.72;65.02
53041;BME280;39326;42.650;23.248;2023-05-25T06:53:54;92704.31;;;19.63;64.69
53041;BME280;39326;42.650;23.248;2023-05-25T06:56:20;92705.53;;;19.62;64.25
53041;BME280;39326;42.650;23.248;2023-05-25T06:58:47;92708.91;;;19.54;64.05
53041;BME280;39326;42.650;23.248;2023-05-25T07:01:12;92710.84;;;19.28;63.08
53041;BME280;39326;42.650;23.248;2023-05-25T07:03:38;92682.63;;;19.03;63.24
53041;BME280;39326;42.650;23.248;2023-05-25T07:06:04;92712.03;;;19.14;63.33
53041;BME280;39326;42.650;23.248;2023-05-25T07:08:30;92714.31;;;19.15;64.24
53041;BME280;39326;42.650;23.248;2023-05-25T07:10:55;92711.06;;;19.20;64.97
53041;BME280;39326;42.650;23.248;2023-05-25T07:13:21;92706.84;;;19.07;63.25
53041;BME280;39326;42.650;23.248;2023-05-25T07:15:46;92703.28;;;19.10;64.78
53041;BME280;39326;42.650;23.248;2023-05-25T07:18:12;92707.91;;;19.47;64.23
53041;BME280;39326;42.650;23.248;2023-05-25T07:20:41;92703.97;;;19.74;62.89
53041;BME280;39326;42.650;23.248;2023-05-25T07:23:08;92712.41;;;19.89;62.22
53041;BME280;39326;42.650;23.248;2023-05-25T07:25:34;92708.81;;;19.92;62.51
53041;BME280;39326;42.650;23.248;2023-05-25T07:28:01;92708.53;;;20.12;61.57
53041;BME280;39326;42.650;23.248;2023-05-25T07:30:26;92715.25;;;20.07;61.44
53041;BME280;39326;42.650;23.248;2023-05-25T07:32:52;92719.03;;;19.62;61.11
53041;BME280;39326;42.650;23.248;2023-05-25T07:35:17;92728.09;;;19.81;61.14
53041;BME280;39326;42.650;23.248;2023-05-25T07:37:43;92718.44;;;19.58;59.66
53041;BME280;39326;42.650;23.248;2023-05-25T07:40:08;92723.63;;;19.53;60.95
53041;BME280;39326;42.650;23.248;2023-05-25T07:42:35;92728.50;;;19.58;61.17
53041;BME280;39326;42.650;23.248;2023-05-25T07:45:00;92725.16;;;19.88;60.53
53041;BME280;39326;42.650;23.248;2023-05-25T07:47:27;92724.47;;;20.10;60.92
53041;BME280;39326;42.650;23.248;2023-05-25T07:49:52;92724.38;;;20.00;60.18
53041;BME280;39326;42.650;23.248;2023-05-25T07:52:18;92713.31;;;20.08;58.86
53041;BME280;39326;42.650;23.248;2023-05-25T07:54:44;92716.53;;;20.15;58.91
53041;BME280;39326;42.650;23.248;2023-05-25T07:57:09;92713.56;;;20.22;57.63
53041;BME280;39326;42.650;23.248;2023-05-25T07:59:35;92716.66;;;20.46;57.34
53041;BME280;39326;42.650;23.248;2023-05-25T08:02:00;92709.78;;;20.54;56.73
53041;BME280;39326;42.650;23.248;2023-05-25T08:04:26;92712.28;;;20.49;57.91
53041;BME280;39326;42.650;23.248;2023-05-25T08:06:51;92714.44;;;20.19;59.11
53041;BME280;39326;42.650;23.248;2023-05-25T08:09:17;92709.38;;;20.21;59.36
53041;BME280;39326;42.650;23.248;2023-05-25T08:11:42;92714.28;;;20.14;59.82
53041;BME280;39326;42.650;23.248;2023-05-25T08:14:10;92716.84;;;20.17;59.98
53041;BME280;39326;42.650;23.248;2023-05-25T08:16:35;92709.84;;;19.72;59.71
53041;BME280;39326;42.650;23.248;2023-05-25T08:19:01;92721.53;;;19.57;61.58
53041;BME280;39326;42.650;23.248;2023-05-25T08:21:26;92725.66;;;19.36;62.98
53041;BME280;39326;42.650;23.248;2023-05-25T08:23:52;92733.69;;;19.27;62.87
53041;BME280;39326;42.650;23.248;2023-05-25T08:26:18;92739.84;;;19.14;63.45
53041;BME280;39326;42.650;23.248;2023-05-25T08:28:43;92746.94;;;18.83;63.41
53041;BME280;39326;42.650;23.248;2023-05-25T08:31:09;92764.97;;;18.73;60.96
53041;BME280;39326;42.650;23.248;2023-05-25T08:33:36;92770.53;;;18.37;61.78
53041;BME280;39326;42.650;23.248;2023-05-25T08:36:01;92780.06;;;18.12;62.02
53041;BME280;39326;42.650;23.248;2023-05-25T08:38:27;92782.50;;;17.58;63.00
53041;BME280;39326;42.650;23.248;2023-05-25T08:41:03;92788.84;;;17.15;62.37
53041;BME280;39326;42.650;23.248;2023-05-25T08:43:31;92792.88;;;17.07;63.41
53041;BME280;39326;42.650;23.248;2023-05-25T08:46:00;92794.63;;;17.33;62.83
53041;BME280;39326;42.650;23.248;2023-05-25T08:48:29;92786.69;;;17.26;63.99
53041;BME280;39326;42.650;23.248;2023-05-25T08:50:58;92790.41;;;17.32;64.57
53041;BME280;39326;42.650;23.248;2023-05-25T08:53:25;92775.97;;;17.23;65.52
53041;BME280;39326;42.650;23.248;2023-05-25T08:55:53;92777.00;;;17.29;65.97
53041;BME280;39326;42.650;23.248;2023-05-25T08:58:27;92775.88;;;17.10;67.33
53041;BME280;39326;42.650;23.248;2023-05-25T09:00:57;92779.53;;;17.20;67.81
53041;BME280;39326;42.650;23.248;2023-05-25T09:03:27;92782.50;;;17.05;68.34
53041;BME280;39326;42.650;23.248;2023-05-25T09:05:55;92787.00;;;16.92;68.60
53041;BME280;39326;42.650;23.248;2023-05-25T09:08:21;92791.59;;;16.75;69.82
53041;BME280;39326;42.650;23.248;2023-05-25T09:10:47;92789.38;;;16.70;69.90
53041;BME280;39326;42.650;23.248;2023-05-25T09:13:14;92791.84;;;16.81;69.24
53041;BME280;39326;42.650;23.248;2023-05-25T09:15:40;92789.56;;;16.79;68.93
53041;BME280;39326;42.650;23.248;2023-05-25T09:18:05;92792.13;;;16.87;68.94
53041;BME280;39326;42.650;23.248;2023-05-25T09:20:31;92786.47;;;16.81;70.22
53041;BME280;39326;42.650;23.248;2023-05-25T09:22:59;92788.91;;;16.95;69.54
53041;BME280;39326;42.650;23.248;2023-05-25T09:25:25;92791.84;;;17.01;70.60
53041;BME280;39326;42.650;23.248;2023-05-25T09:27:56;92790.34;;;17.00;71.24
53041;BME280;39326;42.650;23.248;2023-05-25T09:30:25;92793.78;;;16.80;72.57
53041;BME280;39326;42.650;23.248;2023-05-25T09:33:10;92791.91;;;16.97;70.21
53041;BME280;39326;42.650;23.248;2023-05-25T09:35:36;92794.06;;;17.06;69.66
53041;BME280;39326;42.650;23.248;2023-05-25T09:38:01;92784.97;;;17.00;69.90
53041;BME280;39326;42.650;23.248;2023-05-25T09:40:27;92774.03;;;17.07;70.57
53041;BME280;39326;42.650;23.248;2023-05-25T09:42:52;92776.78;;;17.03;72.65
53041;BME280;39326;42.650;23.248;2023-05-25T09:45:18;92782.00;;;16.74;75.66
53041;BME280;39326;42.650;23.248;2023-05-25T09:47:43;92766.56;;;16.55;77.89
53041;BME280;39326;42.650;23.248;2023-05-25T09:50:10;92773.00;;;16.61;78.49
53041;BME280;39326;42.650;23.248;2023-05-25T09:52:35;92767.81;;;16.70;79.39
53041;BME280;39326;42.650;23.248;2023-05-25T09:55:01;92769.53;;;16.80;79.22
53041;BME280;39326;42.650;23.248;2023-05-25T09:57:27;92758.75;;;17.00;78.42
53041;BME280;39326;42.650;23.248;2023-05-25T09:59:53;92750.69;;;17.00;78.65
53041;BME280;39326;42.650;23.248;2023-05-25T10:02:18;92752.38;;;17.11;78.75
53041;BME280;39326;42.650;23.248;2023-05-25T10:04:44;92753.00;;;17.34;78.31
53041;BME280;39326;42.650;23.248;2023-05-25T10:07:10;92748.84;;;17.14;79.77
53041;BME280;39326;42.650;23.248;2023-05-25T10:09:39;92748.31;;;17.02;78.10
53041;BME280;39326;42.650;23.248;2023-05-25T10:12:06;92740.16;;;17.22;76.69
53041;BME280;39326;42.650;23.248;2023-05-25T10:14:33;92744.63;;;17.13;76.70
53041;BME280;39326;42.650;23.248;2023-05-25T10:17:03;92737.75;;;17.44;76.79
53041;BME280;39326;42.650;23.248;2023-05-25T10:19:44;92738.75;;;17.67;77.01
53041;BME280;39326;42.650;23.248;2023-05-25T10:22:39;92741.38;;;17.70;77.56
53041;BME280;39326;42.650;23.248;2023-05-25T10:25:20;92739.34;;;17.74;76.96
53041;BME280;39326;42.650;23.248;2023-05-25T10:27:55;92742.13;;;17.71;77.56
53041;BME280;39326;42.650;23.248;2023-05-25T10:30:22;92738.94;;;17.76;77.82
53041;BME280;39326;42.650;23.248;2023-05-25T10:32:49;92728.81;;;17.96;76.09
53041;BME280;39326;42.650;23.248;2023-05-25T10:35:16;92726.47;;;18.11;76.63
53041;BME280;39326;42.650;23.248;2023-05-25T10:37:42;92725.06;;;18.35;75.34
53041;BME280;39326;42.650;23.248;2023-05-25T10:40:09;92719.84;;;18.28;74.71
53041;BME280;39326;42.650;23.248;2023-05-25T10:42:36;92719.91;;;18.41;75.43
53041;BME280;39326;42.650;23.248;2023-05-25T10:45:04;92714.91;;;18.27;73.58
53041;BME280;39326;42.650;23.248;2023-05-25T10:47:30;92709.88;;;18.54;73.76
53041;BME280;39326;42.650;23.248;2023-05-25T10:49:57;92707.59;;;18.69;73.86
53041;BME280;39326;42.650;23.248;2023-05-25T10:52:26;92700.66;;;18.93;71.00
53041;BME280;39326;42.650;23.248;2023-05-25T10:54:56;92701.00;;;18.96;70.73
53041;BME280;39326;42.650;23.248;2023-05-25T10:57:23;92696.22;;;18.74;71.67
53041;BME280;39326;42.650;23.248;2023-05-25T10:59:54;92689.97;;;18.48;71.92
53041;BME280;39326;42.650;23.248;2023-05-25T11:02:28;92689.50;;;18.66;nan
53041;BME280;39326;42.650;23.248;2023-05-25T11:07:57;92687.47;;;18.70;71.05
53041;BME280;39326;42.650;23.248;2023-05-25T11:10:51;92685.75;;;18.76;68.88
53041;BME280;39326;42.650;23.248;2023-05-25T11:13:37;92687.03;;;18.72;66.94
53041;BME280;39326;42.650;23.248;2023-05-25T11:18:40;92689.75;;;18.84;65.91
53041;BME280;39326;42.650;23.248;2023-05-25T11:21:22;92683.47;;;18.87;67.08
53041;BME280;39326;42.650;23.248;2023-05-25T11:24:02;92687.91;;;18.81;64.45
53041;BME280;39326;42.650;23.248;2023-05-25T11:26:32;92691.38;;;18.82;65.12
53041;BME280;39326;42.650;23.248;2023-05-25T11:28:59;92690.81;;;18.87;64.92
53041;BME280;39326;42.650;23.248;2023-05-25T11:31:33;92685.84;;;19.11;66.31
53041;BME280;39326;42.650;23.248;2023-05-25T11:34:02;92688.78;;;19.04;66.70
53041;BME280;39326;42.650;23.248;2023-05-25T11:36:34;92685.41;;;19.25;65.41
53041;BME280;39326;42.650;23.248;2023-05-25T11:39:01;92690.06;;;19.25;67.56
53041;BME280;39326;42.650;23.248;2023-05-25T11:41:27;92699.59;;;19.29;66.26
53041;BME280;39326;42.650;23.248;2023-05-25T11:43:53;92696.78;;;19.33;66.97
53041;BME280;39326;42.650;23.248;2023-05-25T11:46:20;92695.91;;;19.10;65.31
53041;BME280;39326;42.650;23.248;2023-05-25T11:48:52;92699.16;;;19.05;64.83
53041;BME280;39326;42.650;23.248;2023-05-25T11:51:26;92699.69;;;19.00;65.43
53041;BME280;39326;42.650;23.248;2023-05-25T11:53:52;92691.94;;;19.15;63.60
53041;BME280;39326;42.650;23.248;2023-05-25T11:56:19;92693.53;;;19.25;62.15
53041;BME280;39326;42.650;23.248;2023-05-25T11:58:45;92688.88;;;19.26;63.16
53041;BME280;39326;42.650;23.248;2023-05-25T12:01:22;92690.41;;;19.27;62.12
53041;BME280;39326;42.650;23.248;2023-05-25T12:03:49;92693.09;;;19.39;61.59
53041;BME280;39326;42.650;23.248;2023-05-25T12:06:30;92688.09;;;19.38;59.13
53041;BME280;39326;42.650;23.248;2023-05-25T12:08:57;92692.22;;;19.42;59.99
53041;BME280;39326;42.650;23.248;2023-05-25T12:11:33;92688.38;;;19.78;60.74
53041;BME280;39326;42.650;23.248;2023-05-25T12:14:00;92681.53;;;19.86;59.52
53041;BME280;39326;42.650;23.248;2023-05-25T12:16:29;92686.66;;;20.06;61.17
53041;BME280;39326;42.650;23.248;2023-05-25T12:18:55;92682.28;;;20.21;59.04
53041;BME280;39326;42.650;23.248;2023-05-25T12:21:22;92683.31;;;20.37;57.31
53041;BME280;39326;42.650;23.248;2023-05-25T12:23:48;92679.66;;;20.52;57.18
53041;BME280;39326;42.650;23.248;2023-05-25T12:26:16;92672.41;;;20.80;56.09
53041;BME280;39326;42.650;23.248;2023-05-25T12:29:02;92658.94;;;20.99;53.87
53041;BME280;39326;42.650;23.248;2023-05-25T12:31:29;92655.41;;;21.20;52.10
53041;BME280;39326;42.650;23.248;2023-05-25T12:34:05;92653.97;;;21.38;51.38
53041;BME280;39326;42.650;23.248;2023-05-25T12:36:48;92652.13;;;21.25;50.34
53041;BME280;39326;42.650;23.248;2023-05-25T12:39:37;92656.66;;;21.28;49.98
53041;BME280;39326;42.650;23.248;2023-05-25T12:42:04;92645.00;;;21.10;49.54
53041;BME280;39326;42.650;23.248;2023-05-25T12:44:36;92644.63;;;21.39;49.54
53041;BME280;39326;42.650;23.248;2023-05-25T12:47:13;92642.72;;;21.67;48.90
53041;BME280;39326;42.650;23.248;2023-05-25T12:49:41;92639.72;;;21.74;46.98
53041;BME280;39326;42.650;23.248;2023-05-25T12:52:08;92628.44;;;22.03;49.69
53041;BME280;39326;42.650;23.248;2023-05-25T12:54:39;92620.41;;;22.36;50.22
53041;BME280;39326;42.650;23.248;2023-05-25T12:57:06;92618.50;;;22.69;50.16